Flight Track Log - Related Links

Times and Time Zones

All times are in EDT time to prevent confusion due to time zone crossing. See the UAL4086 flight status page for this flight to view local times or setup timezone preferences in your user account.

Time Position Orientation Groundspeed Altitude Reporting Facility
EDT Latitude Longitude Course Direction KTS MPH feet Rate Location/Type
Thu 07:14:00 AM 34.4256 -87.0825 233° Southwest  Level FlightAware Approximate
Thu 07:14:17 AM 34.4808 -86.8828 231° Southwest 217 250 7,800  Level Memphis Center
Thu 07:15:00 AM 34.3749 -87.1626 231° Southwest  Level FlightAware Approximate
Thu 07:15:17 AM 34.4389 -86.9525 234° Southwest 241 277 9,600  Level Memphis Center
Thu 07:16:00 AM 34.3226 -87.2411 231° Southwest  Level FlightAware Approximate
Thu 07:16:17 AM 34.3931 -87.0247 232° Southwest 264 304 10,900  Level Memphis Center
Thu 07:17:00 AM 34.2703 -87.3196 231° Southwest  Level FlightAware Approximate
Thu 07:17:17 AM 34.3431 -87.1122 235° Southwest 294 338 11,400  Level Memphis Center
Thu 07:18:00 AM 34.2180 -87.3981 231° Southwest  Level FlightAware Approximate
Thu 07:18:17 AM 34.2831 -87.2100 233° Southwest 322 371 12,300  Level Memphis Center
Thu 07:19:00 AM 34.1658 -87.4765 231° Southwest  Level FlightAware Approximate
Thu 07:19:17 AM 34.2247 -87.3050 233° Southwest 341 392 13,500  Level Memphis Center
Thu 07:20:17 AM 34.1708 -87.4000 236° Southwest 352 405 14,400 950 Climbing Memphis Center
Thu 07:21:17 AM 34.1125 -87.4947 233° Southwest 357 411 15,400 1,100 Climbing Memphis Center
Thu 07:22:17 AM 34.0500 -87.5944 233° Southwest 357 411 16,600 1,150 Climbing Memphis Center
Thu 07:23:17 AM 33.9936 -87.6892 234° Southwest 362 417 17,700 1,000 Climbing Memphis Center
Thu 07:24:17 AM 33.9414 -87.7808 236° Southwest 356 410 18,600 1,050 Climbing Memphis Center
Thu 07:25:17 AM 33.8767 -87.8828 233° Southwest 375 432 19,800 1,550 Climbing Memphis Center
Thu 07:26:17 AM 33.8181 -87.9744 232° Southwest 364 419 21,700 1,900 Climbing Memphis Center
Thu 07:27:17 AM 33.7614 -88.0683 234° Southwest 358 412 23,600 1,250 Climbing Memphis Center
Thu 07:28:17 AM 33.7044 -88.1575 233° Southwest 352 405 24,200 550 Climbing Memphis Center
Thu 07:29:17 AM 33.6456 -88.2536 234° Southwest 352 405 24,700 550 Climbing Memphis Center
Thu 07:30:17 AM 33.5847 -88.3550 234° Southwest 364 419 25,300 850 Climbing Memphis Center
Thu 07:31:17 AM 33.5258 -88.4558 235° Southwest 374 430 26,400 1,150 Climbing Memphis Center
Thu 07:32:17 AM 33.4644 -88.5544 233° Southwest 374 430 27,600 1,200 Climbing Memphis Center
Thu 07:33:17 AM 33.4075 -88.6525 235° Southwest 374 430 28,800 1,200 Climbing Memphis Center
Thu 07:34:17 AM 33.3525 -88.7506 236° Southwest 368 423 30,000 1,200 Climbing Memphis Center
Thu 07:35:17 AM 33.2972 -88.8411 234° Southwest 358 412 31,200 1,100 Climbing Memphis Center
Thu 07:36:17 AM 33.2442 -88.9339 236° Southwest 353 406 32,200 1,000 Climbing Memphis Center
Thu 07:37:17 AM 33.1886 -89.0242 234° Southwest 348 400 33,200 1,000 Climbing Memphis Center
Thu 07:38:17 AM 33.1353 -89.1169 236° Southwest 343 395 34,200 1,000 Climbing Memphis Center
Thu 07:39:17 AM 33.0842 -89.2069 236° Southwest 337 388 35,200 900 Climbing Memphis Center
Thu 07:40:17 AM 33.0306 -89.2942 234° Southwest 337 388 36,000 400 Climbing Memphis Center
Thu 07:41:17 AM 32.9769 -89.3864 235° Southwest 337 388 36,000  Level Memphis Center
Thu 07:42:17 AM 32.9194 -89.4811 234° Southwest 342 394 36,000  Level Memphis Center
Thu 07:43:17 AM 32.8594 -89.5783 234° Southwest 358 412 36,000  Level Memphis Center
Thu 07:44:17 AM 32.7953 -89.6825 234° Southwest 371 427 36,000  Level Memphis Center
Thu 07:45:17 AM 32.7333 -89.7917 236° Southwest 397 457 36,000  Level Memphis Center
Thu 07:46:17 AM 32.6689 -89.9008 235° Southwest 403 464 36,000  Level Memphis Center
Thu 07:47:17 AM 32.6047 -90.0072 234° Southwest 403 464 36,000  Level Memphis Center
Thu 07:48:17 AM 32.5381 -90.1158 234° Southwest 403 464 36,000  Level Memphis Center
Thu 07:49:17 AM 32.4778 -90.2244 237° Southwest 403 464 36,000  Level Memphis Center
Thu 07:50:17 AM 32.4214 -90.3328 238° Southwest 403 464 36,000  Level Memphis Center
Thu 07:51:17 AM 32.3631 -90.4458 239° Southwest 398 458 36,000  Level Memphis Center
Thu 07:53:39 AM 32.2297 -90.7000 238° Southwest 401 461 36,000  Level Houston Center
Thu 07:54:40 AM 32.1689 -90.8150 238° Southwest 404 465 36,000  Level Houston Center
Thu 07:55:41 AM 32.1106 -90.9269 238° Southwest 406 467 36,000  Level Houston Center
Thu 07:56:42 AM 32.0508 -91.0383 238° Southwest 402 463 36,000  Level Houston Center
Thu 07:57:43 AM 31.9906 -91.1511 238° Southwest 407 468 36,000  Level Houston Center
Thu 07:58:44 AM 31.9317 -91.2619 238° Southwest 401 461 36,000  Level Houston Center
Thu 07:59:45 AM 31.8739 -91.3703 238° Southwest 394 453 36,000  Level Houston Center
Thu 08:00:46 AM 31.8156 -91.4767 237° Southwest 387 445 36,000  Level Houston Center
Thu 08:01:47 AM 31.7467 -91.6053 238° Southwest 387 445 36,000  Level Houston Center
Thu 08:02:48 AM 31.6892 -91.7128 238° Southwest 388 447 36,000  Level Houston Center
Thu 08:03:50 AM 31.6328 -91.8172 238° Southwest 381 438 36,000  Level Houston Center
Thu 08:04:51 AM 31.5764 -91.9217 238° Southwest 379 436 36,000  Level Houston Center
Thu 08:05:52 AM 31.5194 -92.0236 237° Southwest 375 432 36,000  Level Houston Center
Thu 08:06:53 AM 31.4636 -92.1267 238° Southwest 375 432 36,000  Level Houston Center
Thu 08:07:54 AM 31.4072 -92.2275 237° Southwest 372 428 36,000  Level Houston Center
Thu 08:08:56 AM 31.3517 -92.3286 237° Southwest 369 425 36,000  Level Houston Center
Thu 08:09:57 AM 31.2903 -92.4419 238° Southwest 370 426 36,000  Level Houston Center
Thu 08:10:58 AM 31.2378 -92.5433 239° Southwest 366 421 36,000  Level Houston Center
Thu 08:11:59 AM 31.1756 -92.6436 234° Southwest 390 449 36,000  Level Houston Center
Thu 08:13:01 AM 31.1206 -92.7450 238° Southwest 375 432 36,000  Level Houston Center
Thu 08:14:02 AM 31.0622 -92.8481 237° Southwest 379 436 36,000 -344 Level Houston Center
Thu 08:15:03 AM 31.0047 -92.9517 237° Southwest 380 437 35,300 -927 Descending Houston Center
Thu 08:16:05 AM 30.9344 -93.0736 236° Southwest 378 435 34,100 -1,073 Descending Houston Center
Thu 08:17:06 AM 30.8739 -93.1797 236° Southwest 390 449 33,100 -1,230 Descending Houston Center
Thu 08:18:07 AM 30.8131 -93.2903 237° Southwest 404 465 31,600 -1,707 Descending Houston Center
Thu 08:19:09 AM 30.7522 -93.3942 236° Southwest 393 452 29,600 -1,951 Descending Houston Center
Thu 08:20:10 AM 30.6944 -93.4981 237° Southwest 385 443 27,600 -2,016 Descending Houston Center
Thu 08:21:11 AM 30.6303 -93.6097 236° Southwest 388 447 25,500 -1,951 Descending Houston Center
Thu 08:22:13 AM 30.5711 -93.7142 237° Southwest 386 444 23,600 -2,000 Descending Houston Center
Thu 08:23:14 AM 30.5128 -93.8156 236° Southwest 380 437 21,400 -2,157 Descending Houston Center
Thu 08:23:42 AM 30.4844 -93.8658 237° Southwest 375 432 20,400 -1,935 Descending Houston Center
Thu 08:24:16 AM 30.4547 -93.9169 236° Southwest 377 434 19,400 -2,100 Descending Houston Center
Thu 08:24:42 AM 30.4236 -93.9711 236° Southwest 372 428 18,300 -2,066 Descending Houston Center
Thu 08:25:17 AM 30.3989 -94.0139 236° Southwest 367 422 17,300 -2,032 Descending Houston Center
Thu 08:25:44 AM 30.3719 -94.0628 237° Southwest 359 413 16,200 -1,935 Descending Houston Center
Thu 08:26:19 AM 30.3431 -94.1106 235° Southwest 361 415 15,300 -2,000 Descending Houston Center
Thu 08:26:44 AM 30.3131 -94.1653 238° Southwest 364 419 14,200 -1,967 Descending Houston Center
Thu 08:27:20 AM 30.2861 -94.2094 235° Southwest 365 420 13,300 -1,791 Descending Houston Center
Thu 08:27:51 AM 30.2503 -94.2731 237° Southwest 360 414 12,200 -1,161 Descending Houston Center
Thu 08:28:22 AM 30.2225 -94.3211 236° Southwest 350 403 12,100 -98 Descending Houston Center
Thu 08:28:52 AM 30.2003 -94.3642 239° Southwest 305 351 12,100 -484 Level Houston Center
Thu 08:29:24 AM 30.1886 -94.4111 254° West 319 367 11,600 -984 Descending Houston Center
Thu 08:29:53 AM 30.1803 -94.4586 259° West 322 371 11,100 -984 Descending Houston Center
Thu 08:30:25 AM 30.1736 -94.5097 261° West 319 367 10,600 -1,082 Descending Houston Center
Thu 08:30:54 AM 30.1633 -94.5650 258° West 312 359 10,000 -476 Descending Houston Center
Thu 08:31:28 AM 30.1556 -94.6069 258° West 313 360 10,100  Climbing Houston Center
Thu 08:31:55 AM 30.1472 -94.6589 260° West 305 351 10,000 -197 Descending Houston Center
Thu 08:32:29 AM 30.1406 -94.6997 259° West 298 343 9,900 -627 Descending Houston Center
Thu 08:33:02 AM 30.1308 -94.7503 257° West 262 302 9,300 -885 Descending Houston Center
Thu 08:33:30 AM 30.1269 -94.7808 262° West 266 306 9,000 -1,082 Descending Houston Center
Thu 08:34:03 AM 30.1161 -94.8392 258° West 258 297 8,200 -968 Descending Houston Center
Thu 08:34:32 AM 30.1117 -94.8611 257° West 259 298 8,000 -982 Descending Houston Center
Thu 08:34:58 AM 30.1058 -94.9083 262° West 258 297 7,300 -1,161 Descending Houston Center
Thu 08:35:34 AM 30.1058 -94.9597 270° West 257 296 6,800 -1,082 Descending Houston Center
Thu 08:35:59 AM 30.1058 -94.9953 270° West 250 288 6,200 -600 Descending Houston Center
Thu 08:36:54 AM 30.1064 -95.0675 271° West 247 284 6,000 -61 Descending Houston Center
Thu 08:37:37 AM 30.1061 -95.1181 270° West 250 288 6,100  Climbing Houston Center
Thu 08:37:55 AM 30.1056 -95.1497 269° West 253 291 6,000  Descending Houston Center
Thu 08:38:39 AM 30.1064 -95.1986 271° West 251 289 6,100  Climbing Houston Center
Thu 08:38:56 AM 30.1069 -95.2319 271° West 253 291 6,000  Descending Houston Center
Thu 08:39:41 AM 30.1069 -95.2803 270° West 254 292 6,100  Climbing Houston Center
Thu 08:39:57 AM 30.1058 -95.3117 268° West 248 285 6,000 -194 Descending Houston Center
Thu 08:40:43 AM 30.1072 -95.3583 272° West 249 287 5,900 -689 Descending Houston Center
Thu 08:40:58 AM 30.1069 -95.3936 269° West 246 283 5,300 -1,279 Descending Houston Center
Thu 08:41:44 AM 30.1069 -95.4506 270° West 243 280 4,600 -885 Descending Houston Center
Thu 08:41:59 AM 30.1056 -95.4711 266° West 245 282 4,400 -968 Descending Houston Center
Thu 08:42:46 AM 30.1078 -95.5297 273° West 246 283 3,600 -985 Descending Houston Center
Thu 08:43:06 AM 30.1072 -95.5578 269° West 250 288 3,300 -581 Descending Houston Center
Thu 08:43:48 AM 30.1075 -95.6108 270° West 250 288 3,000 -295 Descending Houston Center
Thu 08:44:07 AM 30.1064 -95.6425 268° West 249 287 3,000  Level Houston Center
Thu 08:44:50 AM 30.1064 -95.6856 270° West 243 280 3,000  Level Houston Center
Thu 08:45:52 AM 30.0622 -95.7003 196° South 205 236 3,000  Level Houston Center
Thu 08:46:54 AM 30.0169 -95.6772 156° South 192 221 3,000  Level Houston Center
Thu 08:48:06 AM 30.0069 -95.5889 97° East 217 250 3,000  Level Houston Center

Login

Don't have an account? Register now (free) for customized features, flight alerts, and more!